DOR weather

Dori Airport
Dori, Seno, Burkina Faso

Public forecast

Using degrees Celsius for public forecast. Weather courtesy of forecast.io.

Current aviation weather report (METAR) for Dori Airport

Report is more than 6 hours old.

Retrieved 2009/09/21 17:00 UTC (11 years ago):

DFEE 211700Z 14002KT 9/9 FEW020 BKN260 34/21

Closest aviation forecast (TAF) to Dori Airport

Closest forecast is Ouagadougou Airport, 132.9 nm (246.0 km) SW. Retrieved 2020/04/08 12:00 UTC (3 hours ago):

TAF DFFD 081100Z 0812/0918 20008KT 8000 NSC PROB30 TEMPO 0815/0824 TS FEW026 FEW040CB